createdAt,value
2017-09-19T00:00:38.320Z,11.85
2017-09-19T00:03:04.938Z,11.50
2017-09-19T00:05:31.551Z,9.95
2017-09-19T00:07:58.169Z,9.02
2017-09-19T00:10:24.781Z,9.57
2017-09-19T00:12:51.391Z,9.98
2017-09-19T00:15:18.024Z,9.18
2017-09-19T00:17:44.630Z,9.75
2017-09-19T00:20:11.283Z,9.80
2017-09-19T00:22:37.902Z,9.43
2017-09-19T00:25:04.518Z,8.88
2017-09-19T00:27:31.195Z,9.50
2017-09-19T00:29:57.818Z,9.27
2017-09-19T00:32:24.431Z,8.90
2017-09-19T00:34:51.113Z,9.30
2017-09-19T00:37:17.731Z,8.77
2017-09-19T00:39:44.353Z,9.75
2017-09-19T00:42:10.949Z,8.90
2017-09-19T00:44:37.578Z,10.50
2017-09-19T00:47:04.189Z,9.52
2017-09-19T00:49:30.846Z,10.40
2017-09-19T00:51:57.475Z,9.20
2017-09-19T00:54:24.078Z,8.35
2017-09-19T00:56:50.762Z,8.70
2017-09-19T00:59:17.390Z,9.50
2017-09-19T01:01:44.037Z,9.90
2017-09-19T01:04:10.678Z,8.95
2017-09-19T01:06:37.306Z,9.55
2017-09-19T01:09:03.918Z,10.25
2017-09-19T01:11:30.526Z,9.15
2017-09-19T01:13:57.166Z,10.07
2017-09-19T01:16:23.778Z,9.65
2017-09-19T01:18:50.394Z,9.35
2017-09-19T01:21:17.019Z,9.80
2017-09-19T01:23:43.696Z,11.25
2017-09-19T01:26:10.311Z,11.45
2017-09-19T01:28:36.946Z,13.40
2017-09-19T01:31:03.611Z,12.05
2017-09-19T01:33:30.230Z,11.65
2017-09-19T01:35:56.883Z,13.15
2017-09-19T01:38:23.523Z,12.80
2017-09-19T01:40:50.161Z,12.43
2017-09-19T01:43:16.814Z,11.43
2017-09-19T01:45:43.425Z,11.57
2017-09-19T01:48:10.078Z,9.77
2017-09-19T01:50:36.706Z,9.93
2017-09-19T01:53:03.356Z,10.35
2017-09-19T01:55:29.998Z,10.63
2017-09-19T01:57:56.632Z,13.05
2017-09-19T02:00:23.279Z,11.75
2017-09-19T02:02:49.890Z,12.30
2017-09-19T02:05:16.554Z,12.43
2017-09-19T02:07:43.166Z,14.35
2017-09-19T02:10:09.781Z,13.52
2017-09-19T02:12:36.412Z,12.70
2017-09-19T02:15:03.028Z,13.68
2017-09-19T02:17:29.634Z,13.57
2017-09-19T02:19:56.287Z,12.27
2017-09-19T02:22:22.926Z,12.02
2017-09-19T02:24:49.535Z,9.90
2017-09-19T02:27:16.163Z,9.52
2017-09-19T02:29:42.774Z,9.25
2017-09-19T02:32:09.385Z,9.90
2017-09-19T02:34:36.016Z,9.20
2017-09-19T02:37:02.638Z,9.05
2017-09-19T02:39:29.243Z,8.82
2017-09-19T02:41:55.939Z,9.18
2017-09-19T02:44:22.550Z,8.73
2017-09-19T02:46:49.171Z,10.00
2017-09-19T02:49:15.852Z,9.07
2017-09-19T02:51:42.448Z,8.52
2017-09-19T02:54:09.053Z,7.95
2017-09-19T02:56:35.739Z,9.25
2017-09-19T02:59:02.359Z,8.82
2017-09-19T03:01:28.974Z,9.27
2017-09-19T03:03:55.595Z,7.70
2017-09-19T03:06:22.222Z,8.38
2017-09-19T03:08:48.822Z,8.73
2017-09-19T03:11:15.448Z,8.27
2017-09-19T03:13:42.049Z,8.55
2017-09-19T03:16:08.668Z,8.93
2017-09-19T03:18:35.302Z,10.57
2017-09-19T03:21:01.914Z,11.63
2017-09-19T03:23:28.527Z,10.38
2017-09-19T03:25:55.154Z,11.60
2017-09-19T03:28:21.770Z,10.85
2017-09-19T03:30:48.383Z,11.40
2017-09-19T03:33:15.014Z,9.80
2017-09-19T03:35:41.628Z,11.35
2017-09-19T03:38:08.231Z,10.88
2017-09-19T03:40:34.866Z,10.35
2017-09-19T03:43:01.475Z,11.25
2017-09-19T03:45:28.086Z,9.68
2017-09-19T03:47:54.778Z,9.52
2017-09-19T03:50:21.421Z,8.88
2017-09-19T03:52:48.054Z,8.18
2017-09-19T03:55:14.682Z,8.45
2017-09-19T03:57:41.333Z,9.27
2017-09-19T04:00:07.947Z,9.57
2017-09-19T04:02:34.579Z,11.90
2017-09-19T04:05:01.186Z,12.75
2017-09-19T04:07:27.802Z,10.63
2017-09-19T04:09:54.529Z,10.40
2017-09-19T04:12:21.169Z,10.55
2017-09-19T04:14:47.816Z,10.07
2017-09-19T04:17:14.554Z,11.80
2017-09-19T04:19:41.195Z,12.40
2017-09-19T04:22:07.802Z,13.80
2017-09-19T04:24:34.438Z,14.13
2017-09-19T04:27:01.095Z,12.82
2017-09-19T04:29:27.750Z,11.25
2017-09-19T04:31:54.386Z,14.00
2017-09-19T04:34:21.002Z,11.77
2017-09-19T04:36:47.627Z,12.30
2017-09-19T04:39:14.258Z,10.65
2017-09-19T04:41:40.884Z,11.00
2017-09-19T04:44:07.492Z,11.77
2017-09-19T04:46:34.122Z,10.65
2017-09-19T04:49:00.730Z,8.98
2017-09-19T04:51:27.341Z,9.40
2017-09-19T04:53:54.003Z,10.80
2017-09-19T04:56:20.591Z,8.50
2017-09-19T04:58:47.202Z,10.40
2017-09-19T05:01:13.834Z,11.05
2017-09-19T05:03:40.491Z,11.10
2017-09-19T05:06:07.102Z,10.77
2017-09-19T05:08:33.731Z,10.40
2017-09-19T05:11:00.343Z,9.98
2017-09-19T05:13:26.950Z,12.18
2017-09-19T05:15:53.570Z,11.12
2017-09-19T05:18:20.183Z,10.32
2017-09-19T05:20:46.789Z,10.77
2017-09-19T05:23:13.422Z,10.50
2017-09-19T05:25:40.037Z,10.18
2017-09-19T05:28:06.650Z,10.70
2017-09-19T05:30:33.274Z,10.85
2017-09-19T05:32:59.885Z,10.57
2017-09-19T05:35:26.534Z,10.35
2017-09-19T05:37:53.161Z,10.85
2017-09-19T05:40:19.771Z,10.10
2017-09-19T05:42:46.382Z,10.27
2017-09-19T05:45:13.006Z,11.05
2017-09-19T05:47:39.636Z,13.43
2017-09-19T05:50:06.259Z,12.75
2017-09-19T05:52:32.882Z,13.00
2017-09-19T05:54:59.502Z,11.90
2017-09-19T05:57:26.116Z,14.13
2017-09-19T05:59:52.745Z,11.82
2017-09-19T06:02:19.362Z,10.90
2017-09-19T06:04:46.058Z,10.80
2017-09-19T06:07:12.678Z,13.18
2017-09-19T06:09:39.294Z,11.73
2017-09-19T06:12:05.907Z,11.23
2017-09-19T06:14:32.532Z,11.60
2017-09-19T06:16:59.141Z,11.20
2017-09-19T06:19:25.791Z,10.60
2017-09-19T06:21:52.419Z,10.05
2017-09-19T06:24:19.025Z,12.15
2017-09-19T06:26:45.633Z,13.25
2017-09-19T06:29:12.343Z,11.23
2017-09-19T06:31:38.955Z,12.20
2017-09-19T06:34:05.628Z,11.90
2017-09-19T06:36:32.249Z,11.57
2017-09-19T06:38:58.906Z,11.50
2017-09-19T06:41:25.514Z,10.13
2017-09-19T06:43:52.141Z,10.98
2017-09-19T06:46:18.758Z,10.93
2017-09-19T06:48:45.457Z,12.60
2017-09-19T06:51:12.086Z,11.20
2017-09-19T06:53:38.694Z,10.15
2017-09-19T06:56:05.297Z,8.95
2017-09-19T06:58:31.928Z,9.85
2017-09-19T07:00:58.526Z,8.90
2017-09-19T07:03:25.133Z,9.85
2017-09-19T07:05:51.769Z,10.10
2017-09-19T07:08:18.469Z,10.05
2017-09-19T07:10:45.082Z,9.45
2017-09-19T07:13:11.716Z,10.15
2017-09-19T07:15:38.326Z,10.45
2017-09-19T07:18:04.938Z,8.95
2017-09-19T07:20:31.563Z,9.50
2017-09-19T07:22:58.174Z,8.85
2017-09-19T07:25:24.779Z,9.98
2017-09-19T07:27:51.479Z,11.07
2017-09-19T07:30:18.117Z,9.07
2017-09-19T07:32:44.722Z,10.88
2017-09-19T07:35:11.353Z,8.93
2017-09-19T07:37:37.967Z,10.10
2017-09-19T07:40:04.578Z,10.75
2017-09-19T07:42:31.203Z,9.50
2017-09-19T07:44:57.809Z,10.77
2017-09-19T07:47:24.481Z,9.35
2017-09-19T07:49:51.111Z,9.75
2017-09-19T07:52:17.721Z,8.20
2017-09-19T07:54:44.334Z,10.18
2017-09-19T07:57:10.953Z,9.82
2017-09-19T07:59:37.563Z,8.63
2017-09-19T08:02:04.178Z,10.02
2017-09-19T08:04:30.802Z,9.88
2017-09-19T08:06:57.410Z,10.20
2017-09-19T08:09:24.018Z,9.57
2017-09-19T08:11:50.642Z,8.90
2017-09-19T08:14:17.251Z,8.70
2017-09-19T08:16:43.853Z,9.63
2017-09-19T08:19:10.487Z,10.73
2017-09-19T08:21:37.103Z,11.07
2017-09-19T08:24:03.766Z,10.32
2017-09-19T08:26:30.386Z,9.30
2017-09-19T08:28:56.990Z,9.00
2017-09-19T08:31:23.683Z,11.85
2017-09-19T08:33:50.310Z,10.13
2017-09-19T08:36:16.962Z,9.00
2017-09-19T08:38:43.577Z,10.88
2017-09-19T08:41:10.218Z,11.30
2017-09-19T08:43:36.834Z,10.75
2017-09-19T08:46:03.514Z,12.85
2017-09-19T08:48:30.158Z,13.20
2017-09-19T08:50:56.771Z,13.77
2017-09-19T08:53:23.434Z,12.77
2017-09-19T08:55:50.058Z,13.48
2017-09-19T08:58:16.676Z,14.82
2017-09-19T09:00:43.354Z,14.35
2017-09-19T09:03:10.094Z,12.95
2017-09-19T09:05:36.706Z,12.40
2017-09-19T09:08:03.377Z,12.32
2017-09-19T09:10:30.007Z,12.45
2017-09-19T09:12:56.654Z,12.45
2017-09-19T09:15:23.267Z,11.75
2017-09-19T09:17:49.896Z,10.70
2017-09-19T09:20:16.510Z,10.75
2017-09-19T09:22:43.198Z,13.20
2017-09-19T09:25:09.835Z,12.65
2017-09-19T09:27:36.450Z,11.60
2017-09-19T09:30:03.127Z,14.23
2017-09-19T09:32:29.758Z,13.65
2017-09-19T09:34:56.370Z,14.35
2017-09-19T09:37:23.043Z,12.23
2017-09-19T09:39:49.723Z,12.68
2017-09-19T09:42:16.330Z,12.65
2017-09-19T09:44:42.937Z,12.80
2017-09-19T09:47:09.593Z,12.70
2017-09-19T09:49:36.209Z,12.85
2017-09-19T09:52:02.822Z,11.43
2017-09-19T09:54:29.454Z,11.65
2017-09-19T09:56:56.066Z,10.60
2017-09-19T09:59:22.678Z,10.05
2017-09-19T10:01:49.312Z,9.52
2017-09-19T10:04:15.906Z,8.07
2017-09-19T10:06:42.514Z,8.60
2017-09-19T10:09:09.139Z,6.60
2017-09-19T10:11:35.787Z,7.12
2017-09-19T10:14:02.402Z,6.95
2017-09-19T10:16:29.058Z,7.93
2017-09-19T10:18:55.660Z,7.75
2017-09-19T10:21:22.383Z,6.70
2017-09-19T10:23:48.997Z,5.72
2017-09-19T10:26:15.602Z,5.30
2017-09-19T10:28:42.211Z,6.45
2017-09-19T10:31:08.850Z,7.75
2017-09-19T10:33:35.465Z,7.22
2017-09-19T10:36:02.066Z,8.00
2017-09-19T10:38:28.694Z,8.70
2017-09-19T10:40:55.301Z,7.87
2017-09-19T10:43:21.909Z,7.50
2017-09-19T10:45:48.530Z,7.30
2017-09-19T10:48:15.137Z,6.18
2017-09-19T10:50:41.742Z,4.43
2017-09-19T10:53:08.411Z,6.50
2017-09-19T10:55:35.092Z,4.40
2017-09-19T10:58:01.690Z,4.55
2017-09-19T11:00:28.363Z,4.30
2017-09-19T11:02:54.995Z,6.00
2017-09-19T11:05:21.598Z,5.55
2017-09-19T11:07:48.222Z,4.10
2017-09-19T11:10:14.882Z,5.95
2017-09-19T11:12:41.488Z,4.85
2017-09-19T11:15:08.189Z,6.85
2017-09-19T11:17:35.080Z,9.30
2017-09-19T11:20:01.707Z,4.95
2017-09-19T11:22:28.768Z,4.25
2017-09-19T11:24:55.431Z,4.25
2017-09-19T11:27:22.722Z,6.53
2017-09-19T11:29:49.451Z,4.93
2017-09-19T11:32:16.058Z,4.12
2017-09-19T11:34:42.661Z,4.65
2017-09-19T11:37:09.423Z,4.22
2017-09-19T11:39:36.420Z,5.60
2017-09-19T11:42:03.035Z,3.95
2017-09-19T11:44:29.989Z,4.03
2017-09-19T11:46:56.618Z,3.30
2017-09-19T11:49:23.299Z,4.03
2017-09-19T11:51:50.279Z,4.75
2017-09-19T11:54:17.124Z,3.37
2017-09-19T11:56:44.070Z,3.33
2017-09-19T11:59:10.853Z,10.75
2017-09-19T12:01:38.477Z,3.30
2017-09-19T12:04:05.974Z,2.28
2017-09-19T12:06:32.777Z,8.85
2017-09-19T12:08:59.676Z,9.70
2017-09-19T12:11:26.582Z,8.77
2017-09-19T12:13:53.307Z,3.60
2017-09-19T12:16:20.263Z,3.78
2017-09-19T12:18:47.927Z,11.73
2017-09-19T12:21:14.893Z,10.40
2017-09-19T12:23:41.639Z,3.10
2017-09-19T12:26:08.247Z,8.95
2017-09-19T12:28:34.866Z,4.85
2017-09-19T12:31:01.474Z,5.28
2017-09-19T12:33:28.089Z,4.70
2017-09-19T12:35:54.713Z,6.30
2017-09-19T12:38:21.313Z,4.70
2017-09-19T12:40:47.922Z,6.25
2017-09-19T12:43:14.543Z,5.05
2017-09-19T12:45:41.158Z,4.53
2017-09-19T12:48:07.772Z,7.43
2017-09-19T12:50:34.482Z,6.00
2017-09-19T12:53:01.099Z,3.53
2017-09-19T12:55:27.713Z,9.50
2017-09-19T12:57:54.342Z,19.35
2017-09-19T13:00:20.952Z,4.10
2017-09-19T13:02:47.573Z,12.50
2017-09-19T13:05:14.203Z,17.00
2017-09-19T13:07:40.817Z,15.37
2017-09-19T13:10:07.426Z,5.87
2017-09-19T13:12:34.047Z,6.13
2017-09-19T13:15:00.650Z,1.60
2017-09-19T13:17:27.258Z,3.07
2017-09-19T13:19:53.886Z,2.83
2017-09-19T13:22:20.498Z,2.40
2017-09-19T13:24:47.121Z,5.07
2017-09-19T13:27:13.743Z,3.10
2017-09-19T13:29:40.339Z,3.17
2017-09-19T13:32:12.786Z,2.60
2017-09-19T13:34:39.402Z,5.53
2017-09-19T13:37:06.017Z,5.87
2017-09-19T13:39:32.648Z,6.30
2017-09-19T13:41:59.342Z,2.37
2017-09-19T13:44:25.947Z,7.30
2017-09-19T13:46:53.068Z,4.43
2017-09-19T13:49:19.677Z,2.50
2017-09-19T13:51:46.291Z,2.67
2017-09-19T13:54:12.914Z,4.68
2017-09-19T13:56:39.526Z,3.08
2017-09-19T13:59:06.148Z,3.80
2017-09-19T14:01:32.778Z,6.03
2017-09-19T14:03:59.392Z,3.08
2017-09-19T14:06:25.999Z,2.83
2017-09-19T14:08:52.629Z,10.40
2017-09-19T14:11:19.307Z,7.53
2017-09-19T14:13:45.910Z,4.55
2017-09-19T14:16:12.591Z,7.30
2017-09-19T14:18:39.202Z,11.85
2017-09-19T14:21:05.819Z,21.45
2017-09-19T14:23:32.503Z,5.78
2017-09-19T14:25:59.118Z,10.68
2017-09-19T14:28:25.734Z,17.10
2017-09-19T14:30:52.355Z,5.15
2017-09-19T14:33:18.963Z,8.63
2017-09-19T14:35:45.598Z,12.57
2017-09-19T14:38:12.221Z,6.25
2017-09-19T14:40:38.832Z,4.53
2017-09-19T14:43:05.509Z,7.20
2017-09-19T14:45:32.139Z,3.85
2017-09-19T14:47:58.789Z,6.03
2017-09-19T14:50:25.400Z,8.02
2017-09-19T14:52:52.029Z,5.20
2017-09-19T14:55:18.639Z,3.15
2017-09-19T14:57:45.273Z,5.35
2017-09-19T15:00:11.897Z,3.28
2017-09-19T15:02:38.505Z,2.30
2017-09-19T15:05:05.110Z,2.90
2017-09-19T15:07:31.739Z,3.60
2017-09-19T15:09:58.442Z,2.55
2017-09-19T15:12:25.094Z,3.50
2017-09-19T15:14:51.736Z,3.28
2017-09-19T15:17:18.347Z,3.80
2017-09-19T15:19:44.954Z,2.90
2017-09-19T15:22:11.576Z,4.43
2017-09-19T15:24:38.179Z,2.45
2017-09-19T15:27:04.830Z,2.70
2017-09-19T15:29:31.464Z,2.72
2017-09-19T15:31:58.074Z,2.35
2017-09-19T15:34:24.728Z,3.37
2017-09-19T15:36:51.358Z,2.10
2017-09-19T15:39:18.007Z,1.40
2017-09-19T15:41:44.617Z,1.55
2017-09-19T15:44:11.250Z,2.15
2017-09-19T15:46:37.865Z,1.77
2017-09-19T15:49:04.470Z,1.63
2017-09-19T15:51:31.089Z,1.73
2017-09-19T15:53:57.698Z,1.67
2017-09-19T15:56:24.378Z,1.10
2017-09-19T15:58:51.002Z,2.07
2017-09-19T16:01:17.610Z,1.70
2017-09-19T16:03:44.294Z,1.17
2017-09-19T16:06:10.914Z,1.17
2017-09-19T16:08:37.517Z,2.93
2017-09-19T16:11:04.127Z,1.60
2017-09-19T16:13:30.746Z,1.20
2017-09-19T16:15:57.352Z,1.97
2017-09-19T16:18:23.959Z,1.40
2017-09-19T16:20:50.665Z,1.33
2017-09-19T16:23:17.270Z,1.40
2017-09-19T16:25:43.946Z,1.10
2017-09-19T16:28:10.570Z,0.83
2017-09-19T16:30:37.183Z,1.07
2017-09-19T16:33:03.782Z,0.63
2017-09-19T16:35:30.412Z,0.57
2017-09-19T16:37:57.017Z,1.30
2017-09-19T16:40:23.674Z,0.98
2017-09-19T16:42:50.413Z,1.77
2017-09-19T16:45:17.020Z,1.03
2017-09-19T16:47:43.633Z,1.20
2017-09-19T16:50:10.255Z,1.50
2017-09-19T16:52:36.978Z,1.27
2017-09-19T16:55:03.594Z,1.30
2017-09-19T16:57:30.213Z,1.50
2017-09-19T16:59:56.810Z,1.65
2017-09-19T17:02:23.414Z,2.00
2017-09-19T17:04:50.049Z,1.60
2017-09-19T17:07:16.663Z,1.80
2017-09-19T17:09:43.266Z,2.30
2017-09-19T17:12:09.891Z,2.00
2017-09-19T17:14:36.499Z,2.17
2017-09-19T17:17:03.102Z,2.30
2017-09-19T17:19:29.731Z,2.15
2017-09-19T17:21:56.330Z,2.50
2017-09-19T17:24:22.929Z,2.08
2017-09-19T17:26:49.556Z,2.12
2017-09-19T17:29:16.158Z,3.37
2017-09-19T17:31:42.762Z,3.45
2017-09-19T17:34:09.423Z,4.10
2017-09-19T17:36:36.030Z,4.37
2017-09-19T17:39:02.634Z,4.78
2017-09-19T17:41:29.268Z,4.47
2017-09-19T17:43:56.099Z,4.22
2017-09-19T17:46:22.701Z,4.50
2017-09-19T17:48:49.326Z,6.55
2017-09-19T17:51:15.931Z,8.63
2017-09-19T17:53:42.637Z,5.35
2017-09-19T17:56:09.266Z,5.50
2017-09-19T17:58:35.865Z,4.53
2017-09-19T18:01:02.461Z,4.05
2017-09-19T18:03:29.086Z,4.45
2017-09-19T18:05:55.735Z,4.50
2017-09-19T18:08:22.337Z,5.78
2017-09-19T18:10:48.958Z,6.05
2017-09-19T18:13:15.563Z,4.60
2017-09-19T18:15:42.166Z,4.10
2017-09-19T18:18:08.830Z,4.70
2017-09-19T18:20:35.435Z,4.90
2017-09-19T18:23:02.103Z,4.80
2017-09-19T18:25:28.726Z,4.97
2017-09-19T18:27:55.331Z,5.07
2017-09-19T18:30:22.026Z,5.03
2017-09-19T18:32:48.667Z,4.97
2017-09-19T18:35:15.303Z,5.37
2017-09-19T18:37:41.910Z,5.65
2017-09-19T18:40:08.526Z,6.12
2017-09-19T18:42:35.135Z,5.25
2017-09-19T18:45:01.741Z,5.35
2017-09-19T18:47:28.366Z,5.32
2017-09-19T18:49:54.970Z,4.97
2017-09-19T18:52:21.586Z,4.87
2017-09-19T18:54:48.310Z,5.10
2017-09-19T18:57:14.914Z,5.87
2017-09-19T18:59:41.590Z,4.90
2017-09-19T19:02:08.217Z,5.30
2017-09-19T19:04:34.865Z,5.55
2017-09-19T19:07:01.467Z,5.60
2017-09-19T19:09:28.087Z,5.90
2017-09-19T19:11:54.685Z,5.55
2017-09-19T19:14:21.317Z,5.72
2017-09-19T19:16:47.942Z,4.60
2017-09-19T19:19:14.543Z,4.70
2017-09-19T19:21:41.150Z,5.53
2017-09-19T19:24:07.766Z,5.45
2017-09-19T19:26:34.414Z,4.95
2017-09-19T19:29:01.049Z,5.47
2017-09-19T19:31:27.676Z,5.25
2017-09-19T19:33:54.329Z,6.20
2017-09-19T19:36:20.934Z,6.10
2017-09-19T19:38:47.549Z,6.53
2017-09-19T19:41:14.145Z,6.43
2017-09-19T19:43:40.751Z,6.43
2017-09-19T19:46:07.363Z,6.45
2017-09-19T19:48:33.965Z,8.00
2017-09-19T19:51:00.572Z,6.62
2017-09-19T19:53:27.189Z,7.47
2017-09-19T19:55:53.793Z,7.55
2017-09-19T19:58:20.397Z,7.28
2017-09-19T20:00:47.025Z,8.00
2017-09-19T20:03:13.632Z,8.40
2017-09-19T20:05:40.342Z,9.60
2017-09-19T20:08:06.990Z,9.27
2017-09-19T20:10:33.594Z,10.18
2017-09-19T20:13:00.210Z,11.05
2017-09-19T20:15:26.834Z,10.35
2017-09-19T20:17:53.437Z,6.95
2017-09-19T20:20:20.051Z,8.20
2017-09-19T20:22:46.679Z,7.55
2017-09-19T20:25:14.158Z,7.07
2017-09-19T20:27:40.762Z,8.55
2017-09-19T20:30:07.390Z,9.40
2017-09-19T20:32:34.073Z,7.90
2017-09-19T20:35:00.673Z,8.05
2017-09-19T20:37:27.290Z,7.87
2017-09-19T20:39:53.897Z,10.10
2017-09-19T20:42:20.534Z,12.05
2017-09-19T20:44:47.317Z,9.77
2017-09-19T20:47:13.927Z,10.85
2017-09-19T20:49:40.664Z,25.17
2017-09-19T20:52:07.295Z,16.12
2017-09-19T20:54:33.898Z,11.30
2017-09-19T20:57:00.571Z,11.95
2017-09-19T20:59:27.205Z,11.90
2017-09-19T21:01:53.806Z,8.80
2017-09-19T21:04:26.258Z,7.82
2017-09-19T21:06:58.634Z,8.73
2017-09-19T21:09:31.098Z,8.75
2017-09-19T21:12:03.379Z,9.65
2017-09-19T21:14:35.755Z,10.52
2017-09-19T21:17:08.095Z,11.48
2017-09-19T21:19:34.302Z,13.62
2017-09-19T21:22:00.934Z,18.27
2017-09-19T21:24:27.547Z,18.25
2017-09-19T21:26:54.157Z,16.77
2017-09-19T21:29:20.798Z,10.15
2017-09-19T21:31:47.410Z,8.27
2017-09-19T21:34:14.096Z,8.50
2017-09-19T21:36:40.723Z,9.73
2017-09-19T21:39:07.338Z,9.80
2017-09-19T21:41:33.947Z,9.77
2017-09-19T21:44:00.578Z,9.93
2017-09-19T21:46:27.246Z,9.43
2017-09-19T21:48:53.849Z,8.73
2017-09-19T21:51:20.485Z,9.65
2017-09-19T21:53:47.162Z,9.80
2017-09-19T21:56:13.801Z,9.75
2017-09-19T21:58:40.435Z,10.30
2017-09-19T22:01:07.078Z,9.75
2017-09-19T22:03:33.694Z,10.32
2017-09-19T22:06:00.403Z,11.02
2017-09-19T22:08:27.101Z,11.48
2017-09-19T22:10:53.723Z,11.55
2017-09-19T22:13:20.346Z,9.80
2017-09-19T22:15:47.018Z,12.95
2017-09-19T22:18:13.630Z,11.63
2017-09-19T22:20:40.262Z,11.75
2017-09-19T22:23:06.878Z,12.52
2017-09-19T22:25:33.573Z,12.45
2017-09-19T22:28:00.204Z,13.38
2017-09-19T22:30:26.809Z,13.93
2017-09-19T22:32:55.175Z,12.48
2017-09-19T22:35:21.980Z,10.80
2017-09-19T22:37:49.683Z,8.25
2017-09-19T22:40:16.373Z,8.25
2017-09-19T22:42:43.006Z,9.15
2017-09-19T22:45:09.619Z,9.20
2017-09-19T22:47:36.221Z,9.27
2017-09-19T22:50:02.849Z,9.52
2017-09-19T22:52:29.569Z,9.35
2017-09-19T22:54:56.206Z,8.60
2017-09-19T22:57:22.834Z,9.57
2017-09-19T22:59:49.450Z,10.30
2017-09-19T23:02:16.057Z,8.70
2017-09-19T23:04:42.678Z,9.45
2017-09-19T23:07:09.289Z,9.93
2017-09-19T23:09:35.894Z,10.18
2017-09-19T23:12:02.525Z,8.95
2017-09-19T23:14:29.141Z,10.55
2017-09-19T23:16:55.750Z,9.25
2017-09-19T23:19:22.374Z,8.55
2017-09-19T23:21:48.991Z,9.88
2017-09-19T23:24:15.594Z,8.77
2017-09-19T23:26:42.222Z,9.30
2017-09-19T23:29:08.844Z,8.63
2017-09-19T23:31:35.451Z,9.00
2017-09-19T23:34:02.070Z,8.50
2017-09-19T23:36:28.687Z,8.30
2017-09-19T23:38:55.302Z,9.40
2017-09-19T23:41:21.990Z,8.73
2017-09-19T23:43:48.600Z,9.40
2017-09-19T23:46:15.226Z,8.48
2017-09-19T23:48:41.851Z,7.43
2017-09-19T23:51:08.501Z,7.72
2017-09-19T23:53:35.108Z,7.47
2017-09-19T23:56:01.734Z,8.77
2017-09-19T23:58:28.343Z,10.32
